sensor_id;sensor_type;location;lat;lon;timestamp;pressure;altitude;pressure_sealevel;temperature;humidity
33151;BME280;19508;42.578;23.416;2023-02-15T00:01:25;94842.69;;;2.38;69.63
33151;BME280;19508;42.578;23.416;2023-02-15T00:03:50;94833.84;;;2.45;69.48
33151;BME280;19508;42.578;23.416;2023-02-15T00:06:16;94835.53;;;2.38;69.00
33151;BME280;19508;42.578;23.416;2023-02-15T00:08:41;94844.91;;;2.34;69.61
33151;BME280;19508;42.578;23.416;2023-02-15T00:11:12;94835.38;;;2.17;70.35
33151;BME280;19508;42.578;23.416;2023-02-15T00:13:38;94855.03;;;2.31;69.43
33151;BME280;19508;42.578;23.416;2023-02-15T00:16:08;94850.84;;;2.36;67.89
33151;BME280;19508;42.578;23.416;2023-02-15T00:18:34;94851.47;;;2.23;67.05
33151;BME280;19508;42.578;23.416;2023-02-15T00:21:05;94848.38;;;2.12;67.56
33151;BME280;19508;42.578;23.416;2023-02-15T00:23:31;94848.91;;;2.07;67.28
33151;BME280;19508;42.578;23.416;2023-02-15T00:26:09;94857.72;;;2.08;67.29
33151;BME280;19508;42.578;23.416;2023-02-15T00:28:34;94851.44;;;2.01;67.18
33151;BME280;19508;42.578;23.416;2023-02-15T00:31:08;94860.50;;;2.14;66.80
33151;BME280;19508;42.578;23.416;2023-02-15T00:33:35;94864.69;;;2.09;66.74
33151;BME280;19508;42.578;23.416;2023-02-15T00:36:01;94862.91;;;2.01;67.32
33151;BME280;19508;42.578;23.416;2023-02-15T00:38:28;94859.47;;;1.92;67.37
33151;BME280;19508;42.578;23.416;2023-02-15T00:40:58;94856.63;;;1.94;67.69
33151;BME280;19508;42.578;23.416;2023-02-15T00:43:25;94863.00;;;1.85;68.74
33151;BME280;19508;42.578;23.416;2023-02-15T00:45:51;94853.31;;;1.92;69.32
33151;BME280;19508;42.578;23.416;2023-02-15T00:48:17;94868.63;;;1.90;69.48
33151;BME280;19508;42.578;23.416;2023-02-15T00:50:45;94860.66;;;1.90;69.38
33151;BME280;19508;42.578;23.416;2023-02-15T00:53:11;94846.34;;;1.91;69.36
33151;BME280;19508;42.578;23.416;2023-02-15T00:55:37;94848.66;;;1.94;68.88
33151;BME280;19508;42.578;23.416;2023-02-15T00:58:04;94842.22;;;1.88;69.11
33151;BME280;19508;42.578;23.416;2023-02-15T01:00:29;94851.22;;;1.79;69.40
33151;BME280;19508;42.578;23.416;2023-02-15T01:02:55;94837.47;;;1.76;70.77
33151;BME280;19508;42.578;23.416;2023-02-15T01:05:20;94843.63;;;1.76;71.85
33151;BME280;19508;42.578;23.416;2023-02-15T01:07:45;94839.72;;;1.64;72.29
33151;BME280;19508;42.578;23.416;2023-02-15T01:10:11;94837.47;;;1.76;71.41
33151;BME280;19508;42.578;23.416;2023-02-15T01:12:36;94838.66;;;1.73;71.44
33151;BME280;19508;42.578;23.416;2023-02-15T01:15:02;94846.59;;;1.81;71.56
33151;BME280;19508;42.578;23.416;2023-02-15T01:17:29;94836.28;;;1.78;71.39
33151;BME280;19508;42.578;23.416;2023-02-15T01:19:54;94835.28;;;1.79;71.85
33151;BME280;19508;42.578;23.416;2023-02-15T01:22:19;94839.63;;;1.80;72.55
33151;BME280;19508;42.578;23.416;2023-02-15T01:24:45;94831.19;;;2.00;72.02
33151;BME280;19508;42.578;23.416;2023-02-15T01:27:10;94828.75;;;2.13;71.50
33151;BME280;19508;42.578;23.416;2023-02-15T01:29:36;94828.56;;;2.22;71.37
33151;BME280;19508;42.578;23.416;2023-02-15T01:32:02;94826.53;;;2.24;70.98
33151;BME280;19508;42.578;23.416;2023-02-15T01:34:29;94829.31;;;2.08;71.14
33151;BME280;19508;42.578;23.416;2023-02-15T01:36:55;94825.25;;;1.97;71.65
33151;BME280;19508;42.578;23.416;2023-02-15T01:39:20;94827.16;;;2.04;72.09
33151;BME280;19508;42.578;23.416;2023-02-15T01:41:45;94815.94;;;1.93;72.21
33151;BME280;19508;42.578;23.416;2023-02-15T01:47:19;94811.91;;;2.06;72.23
33151;BME280;19508;42.578;23.416;2023-02-15T01:49:47;94805.38;;;1.85;72.86
33151;BME280;19508;42.578;23.416;2023-02-15T01:52:15;94814.63;;;1.97;72.79
33151;BME280;19508;42.578;23.416;2023-02-15T01:54:44;94816.84;;;2.09;72.25
33151;BME280;19508;42.578;23.416;2023-02-15T01:57:14;94812.66;;;1.91;72.79
33151;BME280;19508;42.578;23.416;2023-02-15T01:59:43;94814.22;;;1.78;73.49
33151;BME280;19508;42.578;23.416;2023-02-15T02:02:12;94818.31;;;1.88;73.72
33151;BME280;19508;42.578;23.416;2023-02-15T02:04:41;94813.78;;;1.97;73.24
33151;BME280;19508;42.578;23.416;2023-02-15T02:07:13;94806.59;;;2.06;72.59
33151;BME280;19508;42.578;23.416;2023-02-15T02:09:40;94802.81;;;2.00;73.26
33151;BME280;19508;42.578;23.416;2023-02-15T02:12:06;94814.50;;;2.14;72.42
33151;BME280;19508;42.578;23.416;2023-02-15T02:14:32;94817.59;;;1.94;73.15
33151;BME280;19508;42.578;23.416;2023-02-15T02:33:42;94835.03;;;2.20;72.52
33151;BME280;19508;42.578;23.416;2023-02-15T02:36:25;94830.69;;;1.96;73.15
33151;BME280;19508;42.578;23.416;2023-02-15T02:44:34;94819.69;;;2.07;73.53
33151;BME280;19508;42.578;23.416;2023-02-15T02:47:08;94826.41;;;2.18;72.88
33151;BME280;19508;42.578;23.416;2023-02-15T02:49:37;94813.31;;;2.16;72.46
33151;BME280;19508;42.578;23.416;2023-02-15T02:52:51;94823.28;;;2.14;72.99
33151;BME280;19508;42.578;23.416;2023-02-15T02:54:51;94825.56;;;1.94;73.65
33151;BME280;19508;42.578;23.416;2023-02-15T02:57:16;94823.16;;;2.08;73.07
33151;BME280;19508;42.578;23.416;2023-02-15T02:59:44;94822.09;;;2.17;72.60
33151;BME280;19508;42.578;23.416;2023-02-15T03:02:17;94819.44;;;2.17;72.83
33151;BME280;19508;42.578;23.416;2023-02-15T03:04:48;94821.25;;;2.39;72.49
33151;BME280;19508;42.578;23.416;2023-02-15T03:07:25;94828.50;;;2.45;71.49
33151;BME280;19508;42.578;23.416;2023-02-15T03:09:55;94833.00;;;2.22;73.05
33151;BME280;19508;42.578;23.416;2023-02-15T03:12:32;94838.31;;;2.45;72.04
33151;BME280;19508;42.578;23.416;2023-02-15T03:15:05;94853.38;;;2.30;72.93
33151;BME280;19508;42.578;23.416;2023-02-15T03:17:35;94853.00;;;2.41;72.21
33151;BME280;19508;42.578;23.416;2023-02-15T03:20:08;94839.84;;;2.62;71.72
33151;BME280;19508;42.578;23.416;2023-02-15T03:22:38;94848.38;;;2.58;71.81
33151;BME280;19508;42.578;23.416;2023-02-15T03:27:41;94843.63;;;2.68;71.34
33151;BME280;19508;42.578;23.416;2023-02-15T03:30:09;94841.31;;;2.65;71.37
33151;BME280;19508;42.578;23.416;2023-02-15T03:32:37;94840.78;;;2.46;72.01
33151;BME280;19508;42.578;23.416;2023-02-15T03:35:04;94849.00;;;2.60;72.07
33151;BME280;19508;42.578;23.416;2023-02-15T03:37:40;94845.03;;;2.55;72.11
33151;BME280;19508;42.578;23.416;2023-02-15T03:40:18;94848.56;;;2.71;71.54
33151;BME280;19508;42.578;23.416;2023-02-15T03:43:12;94844.25;;;2.70;71.69
33151;BME280;19508;42.578;23.416;2023-02-15T03:45:42;94846.78;;;2.86;71.08
33151;BME280;19508;42.578;23.416;2023-02-15T03:48:36;94843.81;;;2.81;71.33
33151;BME280;19508;42.578;23.416;2023-02-15T03:51:08;94845.56;;;2.74;71.28
33151;BME280;19508;42.578;23.416;2023-02-15T03:53:54;94843.31;;;2.63;71.90
33151;BME280;19508;42.578;23.416;2023-02-15T03:56:20;94848.22;;;2.74;71.33
33151;BME280;19508;42.578;23.416;2023-02-15T03:58:46;94851.28;;;2.63;71.86
33151;BME280;19508;42.578;23.416;2023-02-15T04:01:37;94846.22;;;2.76;71.51
33151;BME280;19508;42.578;23.416;2023-02-15T04:04:24;94858.88;;;2.74;71.44
33151;BME280;19508;42.578;23.416;2023-02-15T04:06:50;94855.09;;;2.68;71.04
33151;BME280;19508;42.578;23.416;2023-02-15T04:09:16;94848.31;;;2.80;71.26
33151;BME280;19508;42.578;23.416;2023-02-15T04:12:00;94855.19;;;2.75;71.18
33151;BME280;19508;42.578;23.416;2023-02-15T04:14:25;94863.44;;;2.80;71.09
33151;BME280;19508;42.578;23.416;2023-02-15T04:17:09;94851.34;;;2.77;71.14
33151;BME280;19508;42.578;23.416;2023-02-15T04:19:35;94869.50;;;2.89;71.03
33151;BME280;19508;42.578;23.416;2023-02-15T04:22:19;94866.50;;;2.92;70.97
33151;BME280;19508;42.578;23.416;2023-02-15T04:25:04;94865.31;;;2.94;71.05
33151;BME280;19508;42.578;23.416;2023-02-15T04:27:41;94871.00;;;2.91;70.85
33151;BME280;19508;42.578;23.416;2023-02-15T04:30:09;94871.09;;;2.83;71.70
33151;BME280;19508;42.578;23.416;2023-02-15T04:32:35;94868.13;;;2.78;71.70
33151;BME280;19508;42.578;23.416;2023-02-15T04:35:01;94879.25;;;2.96;71.13
33151;BME280;19508;42.578;23.416;2023-02-15T04:37:26;94869.91;;;3.00;70.92
33151;BME280;19508;42.578;23.416;2023-02-15T04:39:52;94887.81;;;3.21;70.58
33151;BME280;19508;42.578;23.416;2023-02-15T04:42:17;94887.53;;;3.01;71.01
33151;BME280;19508;42.578;23.416;2023-02-15T04:44:43;94888.69;;;2.99;71.08
33151;BME280;19508;42.578;23.416;2023-02-15T04:47:08;94890.84;;;3.03;71.07
33151;BME280;19508;42.578;23.416;2023-02-15T04:49:34;94885.50;;;3.03;71.16
33151;BME280;19508;42.578;23.416;2023-02-15T04:51:59;94888.97;;;2.89;71.90
33151;BME280;19508;42.578;23.416;2023-02-15T04:54:25;94887.28;;;3.11;71.40
33151;BME280;19508;42.578;23.416;2023-02-15T04:56:50;94886.38;;;3.19;70.98
33151;BME280;19508;42.578;23.416;2023-02-15T04:59:16;94891.75;;;3.10;71.22
33151;BME280;19508;42.578;23.416;2023-02-15T05:01:41;94897.53;;;3.14;70.62
33151;BME280;19508;42.578;23.416;2023-02-15T05:04:07;94898.44;;;3.06;71.00
33151;BME280;19508;42.578;23.416;2023-02-15T05:06:32;94889.97;;;2.88;71.69
33151;BME280;19508;42.578;23.416;2023-02-15T05:08:58;94902.69;;;3.01;71.26
33151;BME280;19508;42.578;23.416;2023-02-15T05:11:25;94899.97;;;2.86;71.39
33151;BME280;19508;42.578;23.416;2023-02-15T05:13:50;94906.13;;;2.64;72.40
33151;BME280;19508;42.578;23.416;2023-02-15T05:16:16;94896.81;;;2.45;73.24
33151;BME280;19508;42.578;23.416;2023-02-15T05:18:41;94894.28;;;2.74;72.93
33151;BME280;19508;42.578;23.416;2023-02-15T05:21:07;94909.22;;;2.75;72.23
33151;BME280;19508;42.578;23.416;2023-02-15T05:23:32;94910.63;;;2.63;72.80
33151;BME280;19508;42.578;23.416;2023-02-15T05:25:58;94900.56;;;2.73;72.27
33151;BME280;19508;42.578;23.416;2023-02-15T05:28:42;94916.44;;;2.67;72.74
33151;BME280;19508;42.578;23.416;2023-02-15T05:31:09;94926.41;;;2.65;72.68
33151;BME280;19508;42.578;23.416;2023-02-15T05:33:35;94928.16;;;2.72;72.40
33151;BME280;19508;42.578;23.416;2023-02-15T05:36:01;94928.78;;;2.82;72.02
33151;BME280;19508;42.578;23.416;2023-02-15T05:38:26;94929.38;;;2.70;72.23
33151;BME280;19508;42.578;23.416;2023-02-15T05:40:52;94924.03;;;2.70;71.71
33151;BME280;19508;42.578;23.416;2023-02-15T05:43:18;94928.59;;;2.61;72.78
33151;BME280;19508;42.578;23.416;2023-02-15T05:45:48;94926.69;;;2.70;72.27
33151;BME280;19508;42.578;23.416;2023-02-15T05:48:15;94919.38;;;2.72;72.07
33151;BME280;19508;42.578;23.416;2023-02-15T05:50:40;94927.06;;;2.67;71.86
33151;BME280;19508;42.578;23.416;2023-02-15T05:53:06;94936.22;;;2.64;72.30
33151;BME280;19508;42.578;23.416;2023-02-15T05:55:31;94946.56;;;2.82;72.14
33151;BME280;19508;42.578;23.416;2023-02-15T05:57:57;94947.50;;;2.89;72.12
33151;BME280;19508;42.578;23.416;2023-02-15T06:00:22;94938.03;;;2.87;72.24
33151;BME280;19508;42.578;23.416;2023-02-15T06:02:48;94947.72;;;3.02;71.47
33151;BME280;19508;42.578;23.416;2023-02-15T06:05:13;94938.22;;;3.23;70.88
33151;BME280;19508;42.578;23.416;2023-02-15T06:07:39;94930.53;;;3.28;70.40
33151;BME280;19508;42.578;23.416;2023-02-15T06:10:07;94934.66;;;3.30;70.69
33151;BME280;19508;42.578;23.416;2023-02-15T06:12:33;94946.34;;;3.44;69.84
33151;BME280;19508;42.578;23.416;2023-02-15T06:14:58;94941.16;;;3.28;69.90
33151;BME280;19508;42.578;23.416;2023-02-15T06:17:24;94945.84;;;3.40;70.18
33151;BME280;19508;42.578;23.416;2023-02-15T06:19:49;94946.88;;;3.54;69.10
33151;BME280;19508;42.578;23.416;2023-02-15T06:22:14;94932.56;;;3.55;69.14
33151;BME280;19508;42.578;23.416;2023-02-15T06:24:40;94939.44;;;3.64;68.85
33151;BME280;19508;42.578;23.416;2023-02-15T06:27:08;94941.94;;;3.81;68.58
33151;BME280;19508;42.578;23.416;2023-02-15T06:29:33;94933.31;;;3.79;68.53
33151;BME280;19508;42.578;23.416;2023-02-15T06:31:58;94947.44;;;3.79;68.25
33151;BME280;19508;42.578;23.416;2023-02-15T06:34:24;94948.06;;;3.96;67.36
33151;BME280;19508;42.578;23.416;2023-02-15T06:36:49;94940.81;;;4.05;66.84
33151;BME280;19508;42.578;23.416;2023-02-15T06:39:15;94951.50;;;4.26;66.20
33151;BME280;19508;42.578;23.416;2023-02-15T06:41:41;94942.06;;;4.23;66.21
33151;BME280;19508;42.578;23.416;2023-02-15T06:44:06;94951.22;;;4.36;65.42
33151;BME280;19508;42.578;23.416;2023-02-15T06:46:31;94944.94;;;4.43;64.60
33151;BME280;19508;42.578;23.416;2023-02-15T06:48:57;94946.88;;;4.49;64.04
33151;BME280;19508;42.578;23.416;2023-02-15T06:51:22;94956.72;;;4.49;63.47
33151;BME280;19508;42.578;23.416;2023-02-15T06:53:48;94950.00;;;4.53;63.75
33151;BME280;19508;42.578;23.416;2023-02-15T06:56:13;94946.19;;;4.62;62.98
33151;BME280;19508;42.578;23.416;2023-02-15T06:58:39;94946.31;;;4.75;62.88
33151;BME280;19508;42.578;23.416;2023-02-15T07:01:06;94938.56;;;4.80;63.01
33151;BME280;19508;42.578;23.416;2023-02-15T07:03:32;94935.25;;;4.78;63.07
33151;BME280;19508;42.578;23.416;2023-02-15T07:05:59;94931.00;;;4.27;65.20
33151;BME280;19508;42.578;23.416;2023-02-15T07:08:26;94931.56;;;4.37;65.22
33151;BME280;19508;42.578;23.416;2023-02-15T07:10:53;94945.25;;;4.34;65.79
33151;BME280;19508;42.578;23.416;2023-02-15T07:13:19;94949.63;;;4.05;66.62
33151;BME280;19508;42.578;23.416;2023-02-15T07:15:46;94951.94;;;3.79;67.38
33151;BME280;19508;42.578;23.416;2023-02-15T07:18:12;94943.00;;;4.01;66.89
33151;BME280;19508;42.578;23.416;2023-02-15T07:20:39;94947.47;;;4.30;65.83
33151;BME280;19508;42.578;23.416;2023-02-15T07:23:07;94959.09;;;4.44;64.93
33151;BME280;19508;42.578;23.416;2023-02-15T07:25:33;94943.88;;;4.38;65.08
33151;BME280;19508;42.578;23.416;2023-02-15T07:28:03;94954.94;;;4.77;64.27
33151;BME280;19508;42.578;23.416;2023-02-15T07:30:29;94955.84;;;4.85;63.92
33151;BME280;19508;42.578;23.416;2023-02-15T07:32:58;94946.88;;;4.92;63.66
33151;BME280;19508;42.578;23.416;2023-02-15T07:35:52;94944.91;;;5.01;63.73
33151;BME280;19508;42.578;23.416;2023-02-15T07:38:19;94949.22;;;5.23;62.28
33151;BME280;19508;42.578;23.416;2023-02-15T07:40:46;94935.97;;;5.36;61.43
33151;BME280;19508;42.578;23.416;2023-02-15T07:43:12;94933.75;;;5.40;61.07
33151;BME280;19508;42.578;23.416;2023-02-15T07:45:38;94932.47;;;5.64;60.41
33151;BME280;19508;42.578;23.416;2023-02-15T07:48:04;94928.44;;;5.19;61.25
33151;BME280;19508;42.578;23.416;2023-02-15T07:50:29;94935.25;;;5.21;60.97
33151;BME280;19508;42.578;23.416;2023-02-15T07:52:55;94936.78;;;5.65;60.22
33151;BME280;19508;42.578;23.416;2023-02-15T07:55:20;94931.69;;;5.42;60.77
33151;BME280;19508;42.578;23.416;2023-02-15T07:57:48;94937.31;;;5.82;59.88
33151;BME280;19508;42.578;23.416;2023-02-15T08:00:18;94955.19;;;5.81;59.32
33151;BME280;19508;42.578;23.416;2023-02-15T08:02:50;94941.25;;;6.27;58.26
33151;BME280;19508;42.578;23.416;2023-02-15T08:05:37;94935.13;;;6.33;57.23
33151;BME280;19508;42.578;23.416;2023-02-15T08:08:02;94943.34;;;5.90;57.84
33151;BME280;19508;42.578;23.416;2023-02-15T08:10:28;94934.13;;;6.00;58.16
33151;BME280;19508;42.578;23.416;2023-02-15T08:13:12;94930.63;;;5.71;58.88
33151;BME280;19508;42.578;23.416;2023-02-15T08:15:37;94931.69;;;6.05;57.95
33151;BME280;19508;42.578;23.416;2023-02-15T08:18:03;94949.16;;;5.45;59.10
33151;BME280;19508;42.578;23.416;2023-02-15T08:20:28;94944.97;;;5.57;58.24
33151;BME280;19508;42.578;23.416;2023-02-15T08:22:53;94949.56;;;5.42;58.45
33151;BME280;19508;42.578;23.416;2023-02-15T08:25:19;94945.91;;;5.77;58.02
33151;BME280;19508;42.578;23.416;2023-02-15T08:27:44;94943.94;;;5.58;58.04
33151;BME280;19508;42.578;23.416;2023-02-15T08:30:10;94950.97;;;5.93;57.89
33151;BME280;19508;42.578;23.416;2023-02-15T08:32:36;94949.34;;;5.99;57.58
33151;BME280;19508;42.578;23.416;2023-02-15T08:35:02;94940.88;;;5.96;57.28
33151;BME280;19508;42.578;23.416;2023-02-15T08:37:27;94933.19;;;5.86;56.08
33151;BME280;19508;42.578;23.416;2023-02-15T08:39:52;94945.34;;;5.88;56.82
33151;BME280;19508;42.578;23.416;2023-02-15T08:42:18;94949.38;;;6.06;57.20
33151;BME280;19508;42.578;23.416;2023-02-15T08:44:46;94946.69;;;6.06;56.61
33151;BME280;19508;42.578;23.416;2023-02-15T08:47:11;94950.22;;;6.13;57.56
33151;BME280;19508;42.578;23.416;2023-02-15T08:49:37;94940.63;;;6.86;54.62
33151;BME280;19508;42.578;23.416;2023-02-15T08:52:02;94945.59;;;7.62;52.91
33151;BME280;19508;42.578;23.416;2023-02-15T08:54:28;94942.72;;;7.44;52.78
33151;BME280;19508;42.578;23.416;2023-02-15T08:56:53;94939.34;;;6.82;53.64
33151;BME280;19508;42.578;23.416;2023-02-15T08:59:21;94952.47;;;6.57;54.26
33151;BME280;19508;42.578;23.416;2023-02-15T09:01:49;94956.56;;;6.46;54.93
33151;BME280;19508;42.578;23.416;2023-02-15T09:04:15;94943.88;;;6.75;55.31
33151;BME280;19508;42.578;23.416;2023-02-15T09:06:42;94951.16;;;6.40;55.10
33151;BME280;19508;42.578;23.416;2023-02-15T09:09:10;94951.47;;;6.65;54.62
33151;BME280;19508;42.578;23.416;2023-02-15T09:11:41;94942.00;;;6.69;54.88
33151;BME280;19508;42.578;23.416;2023-02-15T09:14:12;94948.66;;;6.99;53.62
33151;BME280;19508;42.578;23.416;2023-02-15T09:16:39;94936.31;;;7.71;53.11
33151;BME280;19508;42.578;23.416;2023-02-15T09:19:06;94938.66;;;8.77;50.78
33151;BME280;19508;42.578;23.416;2023-02-15T09:21:33;94928.19;;;9.00;50.05
33151;BME280;19508;42.578;23.416;2023-02-15T09:24:04;94937.91;;;9.26;47.97
33151;BME280;19508;42.578;23.416;2023-02-15T09:26:32;94931.75;;;9.19;48.02
33151;BME280;19508;42.578;23.416;2023-02-15T09:28:59;94937.75;;;9.21;49.13
33151;BME280;19508;42.578;23.416;2023-02-15T09:31:28;94936.03;;;10.02;46.44
33151;BME280;19508;42.578;23.416;2023-02-15T09:33:55;94936.78;;;10.09;45.57
33151;BME280;19508;42.578;23.416;2023-02-15T09:36:23;94934.09;;;10.09;45.98
33151;BME280;19508;42.578;23.416;2023-02-15T09:39:00;94939.56;;;9.77;46.38
33151;BME280;19508;42.578;23.416;2023-02-15T09:55:24;94929.97;;;8.82;48.55
33151;BME280;19508;42.578;23.416;2023-02-15T10:17:32;94922.56;;;10.20;45.99
33151;BME280;19508;42.578;23.416;2023-02-15T10:28:17;94915.34;;;9.59;46.62
33151;BME280;19508;42.578;23.416;2023-02-15T10:30:50;94911.69;;;9.47;47.11
33151;BME280;19508;42.578;23.416;2023-02-15T10:38:43;94906.13;;;9.92;46.77
33151;BME280;19508;42.578;23.416;2023-02-15T10:55:28;94885.69;;;10.27;45.21
33151;BME280;19508;42.578;23.416;2023-02-15T11:00:35;94879.69;;;11.27;42.94
33151;BME280;19508;42.578;23.416;2023-02-15T11:08:24;94875.25;;;11.21;42.38
33151;BME280;19508;42.578;23.416;2023-02-15T11:10:54;94872.84;;;11.01;42.55
33151;BME280;19508;42.578;23.416;2023-02-15T11:13:22;94870.78;;;11.15;42.75
33151;BME280;19508;42.578;23.416;2023-02-15T11:15:53;94869.34;;;10.40;43.69
33151;BME280;19508;42.578;23.416;2023-02-15T11:18:36;94878.75;;;10.50;44.26
33151;BME280;19508;42.578;23.416;2023-02-15T11:24:14;94870.53;;;11.05;43.26
33151;BME280;19508;42.578;23.416;2023-02-15T11:27:16;94874.38;;;10.97;43.43
33151;BME280;19508;42.578;23.416;2023-02-15T11:30:04;94870.94;;;10.78;42.96
33151;BME280;19508;42.578;23.416;2023-02-15T11:32:34;94872.47;;;10.56;44.90
33151;BME280;19508;42.578;23.416;2023-02-15T11:35:17;94871.38;;;10.45;44.56
33151;BME280;19508;42.578;23.416;2023-02-15T11:38:12;94869.34;;;11.00;43.52
33151;BME280;19508;42.578;23.416;2023-02-15T11:40:48;94872.88;;;10.23;44.23
33151;BME280;19508;42.578;23.416;2023-02-15T11:43:26;94865.75;;;10.47;45.26
33151;BME280;19508;42.578;23.416;2023-02-15T11:45:54;94856.94;;;10.39;44.42
33151;BME280;19508;42.578;23.416;2023-02-15T11:48:19;94869.41;;;9.97;46.57
33151;BME280;19508;42.578;23.416;2023-02-15T11:50:45;94861.34;;;9.36;47.98
33151;BME280;19508;42.578;23.416;2023-02-15T11:53:14;94859.63;;;10.03;46.07
33151;BME280;19508;42.578;23.416;2023-02-15T11:55:43;94845.00;;;10.35;45.52
33151;BME280;19508;42.578;23.416;2023-02-15T12:01:10;94833.91;;;10.25;45.12
33151;BME280;19508;42.578;23.416;2023-02-15T12:03:46;94834.19;;;10.54;45.32
33151;BME280;19508;42.578;23.416;2023-02-15T12:06:27;94834.84;;;10.79;45.09
33151;BME280;19508;42.578;23.416;2023-02-15T12:11:40;94826.34;;;10.64;44.87
33151;BME280;19508;42.578;23.416;2023-02-15T12:14:11;94827.03;;;10.11;45.21
33151;BME280;19508;42.578;23.416;2023-02-15T12:16:49;94826.63;;;10.74;44.03
33151;BME280;19508;42.578;23.416;2023-02-15T12:19:29;94827.06;;;11.13;43.08
33151;BME280;19508;42.578;23.416;2023-02-15T12:21:56;94822.97;;;11.69;41.83
33151;BME280;19508;42.578;23.416;2023-02-15T12:24:46;94813.81;;;11.93;40.65
33151;BME280;19508;42.578;23.416;2023-02-15T12:27:18;94819.00;;;11.83;41.58
33151;BME280;19508;42.578;23.416;2023-02-15T12:30:00;94811.03;;;11.65;40.95
33151;BME280;19508;42.578;23.416;2023-02-15T12:32:31;94808.97;;;10.90;42.70
33151;BME280;19508;42.578;23.416;2023-02-15T12:35:13;94807.84;;;11.09;42.80
33151;BME280;19508;42.578;23.416;2023-02-15T12:37:52;94814.91;;;11.80;41.16
33151;BME280;19508;42.578;23.416;2023-02-15T12:40:29;94807.53;;;11.29;42.27
33151;BME280;19508;42.578;23.416;2023-02-15T12:42:55;94797.03;;;10.97;42.71
33151;BME280;19508;42.578;23.416;2023-02-15T12:45:32;94803.53;;;11.55;41.28
33151;BME280;19508;42.578;23.416;2023-02-15T12:48:19;94790.53;;;12.73;39.12
33151;BME280;19508;42.578;23.416;2023-02-15T12:50:45;94791.22;;;12.51;39.60
33151;BME280;19508;42.578;23.416;2023-02-15T12:53:20;94795.31;;;11.97;40.40
33151;BME280;19508;42.578;23.416;2023-02-15T12:56:02;94786.25;;;12.60;39.39
33151;BME280;19508;42.578;23.416;2023-02-15T12:58:41;94778.91;;;13.73;37.72
33151;BME280;19508;42.578;23.416;2023-02-15T13:01:12;94770.78;;;14.60;35.20
33151;BME280;19508;42.578;23.416;2023-02-15T13:04:04;94767.63;;;14.20;35.63
33151;BME280;19508;42.578;23.416;2023-02-15T13:06:35;94771.94;;;13.99;36.88
33151;BME280;19508;42.578;23.416;2023-02-15T13:09:24;94785.19;;;13.40;37.35
33151;BME280;19508;42.578;23.416;2023-02-15T13:11:50;94784.06;;;13.36;37.57
33151;BME280;19508;42.578;23.416;2023-02-15T13:14:30;94784.00;;;13.69;37.04
33151;BME280;19508;42.578;23.416;2023-02-15T13:16:58;94763.22;;;14.40;35.39
33151;BME280;19508;42.578;23.416;2023-02-15T13:19:39;94779.00;;;14.00;36.41
33151;BME280;19508;42.578;23.416;2023-02-15T13:22:09;94763.97;;;14.85;34.81
33151;BME280;19508;42.578;23.416;2023-02-15T13:24:48;94771.84;;;14.86;35.35
33151;BME280;19508;42.578;23.416;2023-02-15T13:27:18;94768.00;;;15.41;34.20
33151;BME280;19508;42.578;23.416;2023-02-15T13:29:48;94770.63;;;16.16;32.35
33151;BME280;19508;42.578;23.416;2023-02-15T13:32:31;94767.19;;;15.41;34.38
33151;BME280;19508;42.578;23.416;2023-02-15T13:34:59;94763.59;;;16.20;32.97
33151;BME280;19508;42.578;23.416;2023-02-15T13:40:25;94772.06;;;15.76;33.31
33151;BME280;19508;42.578;23.416;2023-02-15T13:46:07;94768.94;;;15.57;33.70
33151;BME280;19508;42.578;23.416;2023-02-15T13:48:41;94767.22;;;15.83;33.48
33151;BME280;19508;42.578;23.416;2023-02-15T13:51:21;94770.97;;;15.77;33.46
33151;BME280;19508;42.578;23.416;2023-02-15T13:56:40;94773.63;;;16.97;31.67
33151;BME280;19508;42.578;23.416;2023-02-15T14:15:33;94793.03;;;16.48;32.44
33151;BME280;19508;42.578;23.416;2023-02-15T14:20:56;94797.59;;;17.31;30.69
33151;BME280;19508;42.578;23.416;2023-02-15T14:32:04;94821.19;;;10.32;43.71
33151;BME280;19508;42.578;23.416;2023-02-15T14:34:48;94824.84;;;10.68;43.43
33151;BME280;19508;42.578;23.416;2023-02-15T14:37:18;94821.91;;;11.70;40.87
33151;BME280;19508;42.578;23.416;2023-02-15T14:39:46;94826.03;;;11.61;41.27
33151;BME280;19508;42.578;23.416;2023-02-15T14:45:30;94828.47;;;9.15;46.61
33151;BME280;19508;42.578;23.416;2023-02-15T14:48:25;94832.56;;;8.61;47.95
33151;BME280;19508;42.578;23.416;2023-02-15T14:50:54;94843.13;;;8.11;50.12
33151;BME280;19508;42.578;23.416;2023-02-15T14:58:36;94828.97;;;7.13;53.91
33151;BME280;19508;42.578;23.416;2023-02-15T15:01:09;94838.06;;;6.92;54.47
33151;BME280;19508;42.578;23.416;2023-02-15T15:03:36;94840.72;;;6.86;54.90
33151;BME280;19508;42.578;23.416;2023-02-15T15:06:24;94834.13;;;6.68;55.56
33151;BME280;19508;42.578;23.416;2023-02-15T15:08:51;94829.00;;;6.67;55.63
33151;BME280;19508;42.578;23.416;2023-02-15T15:13:59;94842.69;;;6.31;57.12
33151;BME280;19508;42.578;23.416;2023-02-15T15:19:00;94837.91;;;6.13;57.48
33151;BME280;19508;42.578;23.416;2023-02-15T15:21:54;94835.47;;;6.18;58.01
33151;BME280;19508;42.578;23.416;2023-02-15T15:49:38;94858.28;;;4.33;62.54
33151;BME280;19508;42.578;23.416;2023-02-15T15:52:21;94870.00;;;4.17;63.53
33151;BME280;19508;42.578;23.416;2023-02-15T15:54:50;94869.22;;;4.02;64.16
33151;BME280;19508;42.578;23.416;2023-02-15T15:57:32;94878.16;;;3.94;64.93
33151;BME280;19508;42.578;23.416;2023-02-15T15:59:58;94863.19;;;3.78;65.08
33151;BME280;19508;42.578;23.416;2023-02-15T16:02:25;94874.50;;;3.65;64.91
33151;BME280;19508;42.578;23.416;2023-02-15T16:04:50;94864.88;;;3.64;65.06
33151;BME280;19508;42.578;23.416;2023-02-15T16:07:20;94871.94;;;3.57;64.69
33151;BME280;19508;42.578;23.416;2023-02-15T16:12:28;94883.41;;;3.14;66.07
33151;BME280;19508;42.578;23.416;2023-02-15T16:14:55;94876.88;;;3.01;66.77
33151;BME280;19508;42.578;23.416;2023-02-15T16:17:27;94873.81;;;2.90;67.44